Time;durP1;ratioP1;P1;durP2;ratioP2;P2;SDS_P1;SDS_P2;PMS_P1;PMS_P2;Temp;Humidity;BMP_temperature;BMP_pressure;BME280_temperature;BME280_humidity;BME280_pressure;Samples;Min_cycle;Max_cycle;Signal;HPM_P1;HPM_P2
2022/09/20 00:01:26;;;;;;;3.65;1.33;;;9.90;99.90;;;;;;4958181;28;20415;-84
2022/09/20 00:03:57;;;;;;;3.42;1.20;;;9.80;99.90;;;;;;4965820;28;20485;-83
2022/09/20 00:06:29;;;;;;;5.22;1.45;;;9.90;99.90;;;;;;4962964;28;20964;-83
2022/09/20 00:08:58;;;;;;;3.77;1.30;;;9.90;99.90;;;;;;4978151;28;20403;-86
2022/09/20 00:11:29;;;;;;;2.28;1.20;;;9.90;99.90;;;;;;4971172;28;20398;-83
2022/09/20 00:13:58;;;;;;;3.17;2.08;;;9.90;99.90;;;;;;4960371;28;20456;-84
2022/09/20 00:16:29;;;;;;;3.65;2.45;;;9.80;99.90;;;;;;4979651;28;20406;-83
2022/09/20 00:18:59;;;;;;;3.58;2.63;;;9.70;99.90;;;;;;4967867;28;20921;-82
2022/09/20 00:21:29;;;;;;;4.70;1.75;;;9.70;99.90;;;;;;4975776;28;20584;-84
2022/09/20 00:23:57;;;;;;;3.25;1.60;;;9.70;99.90;;;;;;4964374;28;20407;-85
2022/09/20 00:26:26;;;;;;;4.60;1.80;;;9.80;99.90;;;;;;4972959;28;20397;-85
2022/09/20 00:28:54;;;;;;;3.07;1.40;;;9.80;99.90;;;;;;4983036;28;20455;-84
2022/09/20 00:31:22;;;;;;;3.97;1.98;;;9.80;99.90;;;;;;4979710;28;20409;-85
2022/09/20 00:36:39;;;;;;;3.28;2.00;;;9.70;99.90;;;;;;4966151;28;20416;-84
2022/09/20 00:39:10;;;;;;;3.15;1.60;;;9.80;99.90;;;;;;4965987;28;20414;-83
2022/09/20 00:41:37;;;;;;;2.00;1.70;;;9.80;99.90;;;;;;4965970;28;20409;-84
2022/09/20 00:44:44;;;;;;;4.50;1.80;;;9.90;99.90;;;;;;4965805;28;20422;-84
2022/09/20 00:47:38;;;;;;;3.37;1.80;;;9.90;99.90;;;;;;4965575;28;20410;-84
2022/09/20 00:50:26;;;;;;;3.28;2.00;;;9.90;99.90;;;;;;4964544;28;20444;-83
2022/09/20 00:53:05;;;;;;;3.08;2.10;;;9.90;99.90;;;;;;4969695;28;20445;-86
2022/09/20 00:55:35;;;;;;;3.00;1.90;;;9.80;99.90;;;;;;4979770;28;20414;-84
2022/09/20 00:58:08;;;;;;;2.95;1.92;;;9.70;99.90;;;;;;4962542;28;20408;-85
2022/09/20 01:00:36;;;;;;;3.92;2.17;;;9.60;99.90;;;;;;4980441;28;20857;-83
2022/09/20 01:03:08;;;;;;;4.18;2.67;;;9.60;99.90;;;;;;4981642;28;20419;-84
2022/09/20 01:05:38;;;;;;;4.13;2.50;;;9.60;99.90;;;;;;4965134;28;20400;-83
2022/09/20 01:08:07;;;;;;;4.97;3.10;;;9.60;99.90;;;;;;4977591;28;20513;-84
2022/09/20 01:10:35;;;;;;;4.93;3.80;;;9.40;99.90;;;;;;4964084;28;20420;-85
2022/09/20 01:13:02;;;;;;;7.05;4.00;;;9.40;99.90;;;;;;4980264;28;20408;-84
2022/09/20 01:15:32;;;;;;;5.53;3.67;;;9.40;99.90;;;;;;4978666;28;20395;-84
2022/09/20 01:18:01;;;;;;;6.32;3.70;;;9.40;99.90;;;;;;4966013;28;20913;-83
2022/09/20 01:20:34;;;;;;;4.05;3.65;;;9.50;99.90;;;;;;4956658;28;20414;-85
2022/09/20 01:23:21;;;;;;;3.90;2.97;;;9.50;99.90;;;;;;4964997;28;20412;-84
2022/09/20 01:26:17;;;;;;;4.05;3.20;;;9.50;99.90;;;;;;4982267;28;20393;-84
2022/09/20 01:28:48;;;;;;;5.60;3.90;;;9.50;99.90;;;;;;4964192;28;20399;-84
2022/09/20 01:31:19;;;;;;;6.78;3.75;;;9.50;99.90;;;;;;4967992;28;20413;-84
2022/09/20 01:34:00;;;;;;;5.40;3.65;;;9.60;99.90;;;;;;4960866;28;20430;-84
2022/09/20 01:36:41;;;;;;;8.27;3.83;;;9.50;99.90;;;;;;4964566;28;20803;-84
2022/09/20 01:39:33;;;;;;;6.60;4.05;;;9.30;99.90;;;;;;4981045;28;20446;-85
2022/09/20 01:42:05;;;;;;;5.47;4.18;;;9.30;99.90;;;;;;4967003;28;20413;-82
2022/09/20 01:44:36;;;;;;;5.03;3.63;;;9.40;99.90;;;;;;4962074;28;20527;-84
2022/09/20 01:47:24;;;;;;;5.15;3.30;;;9.30;99.90;;;;;;4965042;28;20413;-84
2022/09/20 01:50:05;;;;;;;5.45;3.80;;;9.40;99.90;;;;;;4969351;28;20399;-85
2022/09/20 01:52:55;;;;;;;4.55;3.53;;;9.40;99.90;;;;;;4963291;28;20931;-83
2022/09/20 01:55:48;;;;;;;4.40;3.50;;;9.40;99.90;;;;;;4968807;28;20463;-82
2022/09/20 01:58:40;;;;;;;5.17;3.93;;;9.40;99.90;;;;;;4964520;28;20403;-84
2022/09/20 02:01:34;;;;;;;5.70;3.80;;;9.40;99.90;;;;;;4979563;28;20395;-85
2022/09/20 02:04:41;;;;;;;5.43;3.88;;;9.30;99.90;;;;;;4964460;28;20821;-85
2022/09/20 02:07:31;;;;;;;5.10;3.75;;;9.20;99.90;;;;;;4965289;28;20406;-85
2022/09/20 02:10:11;;;;;;;4.65;3.83;;;9.30;99.90;;;;;;4966333;28;20524;-84
2022/09/20 02:12:57;;;;;;;4.72;3.70;;;9.40;99.90;;;;;;4963353;28;20459;-84
2022/09/20 02:16:02;;;;;;;4.40;3.40;;;9.40;99.90;;;;;;4964906;28;20413;-82
2022/09/20 02:19:09;;;;;;;5.97;3.22;;;9.30;99.90;;;;;;4981220;28;20909;-85
2022/09/20 02:21:45;;;;;;;3.78;3.10;;;9.30;99.90;;;;;;4956269;28;20976;-82
2022/09/20 02:24:37;;;;;;;5.13;3.60;;;9.30;99.90;;;;;;4965602;28;20406;-83
2022/09/20 02:27:22;;;;;;;5.57;3.55;;;9.30;99.90;;;;;;4964395;28;20390;-86
2022/09/20 02:30:11;;;;;;;3.78;2.70;;;9.30;99.90;;;;;;4968380;28;20793;-84
2022/09/20 02:33:05;;;;;;;3.80;2.90;;;9.30;99.90;;;;;;4979023;28;20986;-85
2022/09/20 02:35:39;;;;;;;3.70;2.90;;;9.40;99.90;;;;;;4955100;28;20420;-84
2022/09/20 02:38:21;;;;;;;4.65;3.00;;;9.40;99.90;;;;;;4964998;28;20423;-82
2022/09/20 02:41:33;;;;;;;4.30;3.10;;;9.40;99.90;;;;;;4954798;29;20424;-83
2022/09/20 02:44:25;;;;;;;3.92;2.90;;;9.40;99.90;;;;;;4955760;28;20421;-83
2022/09/20 02:46:58;;;;;;;3.50;2.35;;;9.30;99.90;;;;;;4966551;28;20405;-86
2022/09/20 02:49:38;;;;;;;3.72;3.03;;;9.30;99.90;;;;;;4962611;28;20887;-85
2022/09/20 02:52:27;;;;;;;4.25;3.17;;;9.30;99.90;;;;;;4957893;28;20409;-84
2022/09/20 02:55:06;;;;;;;3.45;2.20;;;9.30;99.90;;;;;;4959850;28;20980;-83
2022/09/20 02:57:46;;;;;;;3.10;2.63;;;9.30;99.90;;;;;;4975523;28;20964;-83
2022/09/20 03:00:27;;;;;;;3.30;2.78;;;9.30;99.90;;;;;;4978224;28;20883;-82
2022/09/20 03:03:29;;;;;;;3.97;2.90;;;9.20;99.90;;;;;;4981058;28;20432;-85
2022/09/20 03:06:15;;;;;;;4.45;2.97;;;9.20;99.90;;;;;;4956621;28;20400;-84
2022/09/20 03:09:05;;;;;;;5.32;3.00;;;9.20;99.90;;;;;;4980707;28;20418;-85
2022/09/20 03:12:03;;;;;;;5.40;3.07;;;9.20;99.90;;;;;;4961775;28;20399;-84
2022/09/20 03:14:37;;;;;;;3.80;2.87;;;9.20;99.90;;;;;;4954373;28;20406;-85
2022/09/20 03:17:24;;;;;;;4.00;3.05;;;9.20;99.90;;;;;;4962790;28;20437;-85
2022/09/20 03:20:13;;;;;;;6.00;3.30;;;9.20;99.90;;;;;;4978894;28;20895;-84
2022/09/20 03:23:03;;;;;;;3.92;3.00;;;9.20;99.90;;;;;;4965977;28;20497;-85
2022/09/20 03:26:09;;;;;;;5.57;2.75;;;9.20;99.90;;;;;;4979350;28;20469;-82
2022/09/20 03:29:06;;;;;;;4.15;2.97;;;9.20;99.90;;;;;;4943645;29;20465;-85
2022/09/20 03:31:47;;;;;;;3.67;2.92;;;9.20;99.90;;;;;;4971035;28;20427;-85
2022/09/20 03:34:46;;;;;;;4.35;3.00;;;9.20;99.90;;;;;;4978090;28;20400;-84
2022/09/20 03:37:49;;;;;;;4.50;3.60;;;9.20;99.90;;;;;;4981937;28;20501;-84
2022/09/20 03:40:29;;;;;;;4.07;3.28;;;9.20;99.90;;;;;;4944813;28;20459;-83
2022/09/20 03:43:12;;;;;;;4.00;2.90;;;9.20;99.90;;;;;;4964100;28;20413;-84
2022/09/20 03:46:15;;;;;;;2.97;2.47;;;9.20;99.90;;;;;;4964353;28;20457;-84
2022/09/20 03:48:55;;;;;;;5.45;3.03;;;9.20;99.90;;;;;;4976612;28;20395;-85
2022/09/20 03:51:46;;;;;;;4.32;3.20;;;9.20;99.90;;;;;;4985672;28;20775;-85
2022/09/20 03:54:23;;;;;;;4.68;2.40;;;9.20;99.90;;;;;;4960933;28;20404;-84
2022/09/20 03:57:08;;;;;;;5.90;3.17;;;9.20;99.90;;;;;;4961743;28;20398;-83
2022/09/20 03:59:53;;;;;;;5.22;3.30;;;9.20;99.90;;;;;;4979102;28;20755;-84
2022/09/20 04:03:03;;;;;;;5.05;3.35;;;9.20;99.90;;;;;;4964172;28;20411;-85
2022/09/20 04:05:44;;;;;;;5.57;3.63;;;9.10;99.90;;;;;;4965243;28;20441;-84
2022/09/20 04:08:49;;;;;;;4.78;3.38;;;9.10;99.90;;;;;;4982281;28;20402;-86
2022/09/20 04:11:53;;;;;;;4.88;3.67;;;9.10;99.90;;;;;;4980036;28;20402;-86
2022/09/20 04:15:17;;;;;;;4.53;3.10;;;9.10;99.90;;;;;;4971307;28;20410;-81
2022/09/20 04:17:56;;;;;;;5.53;3.75;;;9.10;99.90;;;;;;4953836;28;20445;-86
2022/09/20 04:20:47;;;;;;;5.30;3.80;;;9.10;99.90;;;;;;4962078;28;20438;-86
2022/09/20 04:23:33;;;;;;;5.63;3.55;;;9.20;99.90;;;;;;4963454;28;20904;-85
2022/09/20 04:26:02;;;;;;;4.40;3.22;;;9.20;99.90;;;;;;4964021;28;20396;-83
2022/09/20 04:29:07;;;;;;;7.50;4.10;;;9.10;99.90;;;;;;4964275;28;20437;-83
2022/09/20 04:31:49;;;;;;;5.18;3.63;;;9.10;99.90;;;;;;4937861;28;20552;-84
2022/09/20 04:37:35;;;;;;;5.03;3.50;;;9.10;99.90;;;;;;4962799;28;20446;-85
2022/09/20 04:40:14;;;;;;;6.32;3.53;;;9.10;99.90;;;;;;4966942;28;20740;-86
2022/09/20 04:43:03;;;;;;;5.38;3.83;;;9.20;99.90;;;;;;4976323;28;20414;-84
2022/09/20 04:45:31;;;;;;;5.80;4.03;;;9.10;99.90;;;;;;4961203;28;20506;-85
2022/09/20 04:48:37;;;;;;;6.97;3.80;;;9.20;99.90;;;;;;4977148;28;20924;-84
2022/09/20 04:51:42;;;;;;;5.63;3.72;;;9.20;99.90;;;;;;4953543;28;20483;-86
2022/09/20 04:54:57;;;;;;;4.37;3.40;;;9.20;99.90;;;;;;4961749;28;20398;-84
2022/09/20 04:57:45;;;;;;;4.95;3.60;;;9.20;99.90;;;;;;4957170;28;20964;-86
2022/09/20 05:00:20;;;;;;;4.32;2.95;;;9.20;99.90;;;;;;4963882;28;20407;-82
2022/09/20 05:02:54;;;;;;;5.75;3.75;;;9.20;99.90;;;;;;4960421;28;20767;-86
2022/09/20 05:05:24;;;;;;;3.75;2.97;;;9.30;99.90;;;;;;4960217;28;20418;-86
2022/09/20 05:08:01;;;;;;;4.75;3.30;;;9.20;99.90;;;;;;4963373;28;20914;-86
2022/09/20 05:11:10;;;;;;;5.05;3.17;;;9.30;99.90;;;;;;4982023;28;20457;-86
2022/09/20 05:14:15;;;;;;;5.28;3.80;;;9.30;99.90;;;;;;4958946;28;20415;-86
2022/09/20 05:16:58;;;;;;;5.20;3.40;;;9.40;99.90;;;;;;4972042;28;20414;-85
2022/09/20 05:19:42;;;;;;;5.10;3.28;;;9.30;99.90;;;;;;4971410;28;20482;-86
2022/09/20 05:22:28;;;;;;;5.32;3.85;;;9.30;99.90;;;;;;4967898;28;20491;-85
2022/09/20 05:25:06;;;;;;;5.70;3.90;;;9.30;99.90;;;;;;4974596;28;20417;-87
2022/09/20 05:27:49;;;;;;;7.40;3.87;;;9.40;99.90;;;;;;4978551;28;20386;-86
2022/09/20 05:30:39;;;;;;;4.57;3.60;;;9.40;99.90;;;;;;4957632;29;20684;-87
2022/09/20 05:33:39;;;;;;;4.80;3.50;;;9.40;99.90;;;;;;4957885;28;20487;-86
2022/09/20 05:36:09;;;;;;;3.63;2.72;;;9.40;99.90;;;;;;4976196;28;20423;-85
2022/09/20 05:38:53;;;;;;;3.55;2.60;;;9.40;99.90;;;;;;4960945;29;20396;-83
2022/09/20 05:41:46;;;;;;;3.80;3.00;;;9.40;99.90;;;;;;4973330;28;20397;-86
2022/09/20 05:44:44;;;;;;;4.37;3.10;;;9.50;99.90;;;;;;4972325;28;20413;-86
2022/09/20 05:47:23;;;;;;;3.87;2.70;;;9.50;99.90;;;;;;4956745;29;20398;-84
2022/09/20 05:50:22;;;;;;;3.58;2.83;;;9.40;99.90;;;;;;4956178;28;20426;-86
2022/09/20 05:53:03;;;;;;;4.97;2.90;;;9.50;99.90;;;;;;4971945;28;20483;-85
2022/09/20 05:55:57;;;;;;;3.10;2.42;;;9.50;99.90;;;;;;4972518;28;20463;-85
2022/09/20 05:58:43;;;;;;;3.58;2.97;;;9.40;99.90;;;;;;4956855;29;20406;-87
2022/09/20 06:01:28;;;;;;;3.88;3.10;;;9.40;99.90;;;;;;4972236;28;20891;-84
2022/09/20 06:04:26;;;;;;;4.28;3.15;;;9.40;99.90;;;;;;4971524;28;20496;-86
2022/09/20 06:07:06;;;;;;;3.40;2.67;;;9.50;99.90;;;;;;4957295;29;20400;-83
2022/09/20 06:10:12;;;;;;;4.00;2.80;;;9.50;99.90;;;;;;4955063;29;20782;-86
2022/09/20 06:13:16;;;;;;;4.40;3.20;;;9.50;99.90;;;;;;4956317;29;20407;-85
2022/09/20 06:16:00;;;;;;;3.20;2.55;;;9.60;99.90;;;;;;4957395;29;20396;-83
2022/09/20 06:19:06;;;;;;;3.53;2.45;;;9.60;99.90;;;;;;4971862;28;20406;-86
2022/09/20 06:21:50;;;;;;;2.45;2.03;;;9.60;99.90;;;;;;4956355;29;20487;-86
2022/09/20 06:24:38;;;;;;;2.88;2.20;;;9.60;99.90;;;;;;4954489;29;20455;-87
2022/09/20 06:27:16;;;;;;;2.83;2.30;;;9.70;99.90;;;;;;4964126;28;20428;-86
2022/09/20 06:29:49;;;;;;;2.55;1.95;;;9.70;99.90;;;;;;4970495;28;20427;-85
2022/09/20 06:32:17;;;;;;;2.97;2.20;;;9.70;99.90;;;;;;4955223;29;20991;-84
2022/09/20 06:34:46;;;;;;;2.70;1.92;;;9.80;99.90;;;;;;4955399;29;20759;-83
2022/09/20 06:43:13;;;;;;;3.03;1.92;;;9.80;99.90;;;;;;4955252;28;20406;-84
2022/09/20 06:45:41;;;;;;;2.27;1.90;;;9.80;99.90;;;;;;4969923;28;20454;-85
2022/09/20 06:48:11;;;;;;;3.63;2.08;;;9.90;99.90;;;;;;4970260;28;20409;-86
2022/09/20 06:50:42;;;;;;;3.13;1.95;;;9.90;99.90;;;;;;4970812;28;20827;-85
2022/09/20 06:53:16;;;;;;;3.08;2.10;;;9.90;99.90;;;;;;4970735;28;20430;-85
2022/09/20 06:55:45;;;;;;;2.53;1.90;;;9.90;99.90;;;;;;4957155;29;20442;-87
2022/09/20 06:58:13;;;;;;;2.33;1.80;;;10.00;99.90;;;;;;4956392;28;20725;-82
2022/09/20 07:00:40;;;;;;;2.20;1.65;;;10.00;99.90;;;;;;4969944;28;20400;-86
2022/09/20 07:03:08;;;;;;;2.30;1.80;;;10.00;99.90;;;;;;4955127;29;20424;-86
2022/09/20 07:05:36;;;;;;;2.65;1.75;;;10.00;99.90;;;;;;4955155;28;20447;-86
2022/09/20 07:08:03;;;;;;;2.45;1.50;;;10.10;99.90;;;;;;4970009;28;20399;-84
2022/09/20 07:10:32;;;;;;;2.58;1.80;;;10.10;99.90;;;;;;4954746;29;20392;-83
2022/09/20 07:13:00;;;;;;;3.10;1.80;;;10.10;99.90;;;;;;4955418;29;20479;-87
2022/09/20 07:15:31;;;;;;;2.85;2.00;;;10.20;99.90;;;;;;4970519;28;20439;-87
2022/09/20 07:18:01;;;;;;;2.58;1.75;;;10.20;99.90;;;;;;4971270;28;20404;-86
2022/09/20 07:20:29;;;;;;;2.10;1.80;;;10.20;99.90;;;;;;4955756;29;20431;-85
2022/09/20 07:22:56;;;;;;;2.92;1.63;;;10.20;99.90;;;;;;4970438;28;20775;-87
2022/09/20 07:25:24;;;;;;;2.63;1.80;;;10.20;99.90;;;;;;4969857;28;20416;-87
2022/09/20 07:27:51;;;;;;;2.23;1.60;;;10.10;99.90;;;;;;4954678;29;20439;-84
2022/09/20 07:30:20;;;;;;;1.95;1.50;;;10.10;99.90;;;;;;4969289;28;20576;-86
2022/09/20 07:32:49;;;;;;;2.00;1.50;;;10.10;99.90;;;;;;4969027;28;20475;-85
2022/09/20 07:35:16;;;;;;;2.30;1.50;;;10.10;99.90;;;;;;4969283;28;20402;-88
2022/09/20 07:37:44;;;;;;;2.30;1.70;;;10.20;99.90;;;;;;4954267;29;20400;-85
2022/09/20 07:40:13;;;;;;;2.50;1.65;;;10.20;99.90;;;;;;4953168;29;20416;-86
2022/09/20 07:42:41;;;;;;;2.20;1.65;;;10.20;99.90;;;;;;4954191;29;20396;-87
2022/09/20 07:45:09;;;;;;;1.80;1.50;;;10.20;99.90;;;;;;4954270;29;20434;-87
2022/09/20 07:47:40;;;;;;;2.13;1.45;;;10.20;99.90;;;;;;4969039;28;20483;-87
2022/09/20 07:50:10;;;;;;;2.60;1.33;;;10.30;99.90;;;;;;4954121;29;20418;-85
2022/09/20 07:52:37;;;;;;;2.15;1.55;;;10.30;99.90;;;;;;4969091;28;20958;-86
2022/09/20 07:55:05;;;;;;;1.77;1.23;;;10.30;99.90;;;;;;4969286;28;20396;-85
2022/09/20 07:57:37;;;;;;;1.80;1.40;;;10.20;99.90;;;;;;4969007;28;20404;-85
2022/09/20 08:00:07;;;;;;;2.13;1.40;;;10.20;99.90;;;;;;4969738;28;20397;-88
2022/09/20 08:02:41;;;;;;;1.67;1.30;;;10.30;99.90;;;;;;4969118;28;20463;-85
2022/09/20 08:05:08;;;;;;;1.88;1.40;;;10.30;99.90;;;;;;4953840;29;20412;-87
2022/09/20 08:07:37;;;;;;;1.50;1.30;;;10.40;99.90;;;;;;4968878;28;20406;-85
2022/09/20 08:10:05;;;;;;;1.52;1.20;;;10.40;99.90;;;;;;4953865;29;20396;-86
2022/09/20 08:12:34;;;;;;;2.30;1.60;;;10.40;99.90;;;;;;4953926;29;20427;-85
2022/09/20 08:15:21;;;;;;;2.28;1.38;;;10.50;99.90;;;;;;4953745;29;20425;-85
2022/09/20 08:17:49;;;;;;;1.70;1.30;;;10.50;99.90;;;;;;4968714;28;20404;-85
2022/09/20 08:20:17;;;;;;;2.28;1.35;;;10.50;99.90;;;;;;4968394;28;20404;-85
2022/09/20 08:22:45;;;;;;;1.70;1.30;;;10.50;99.90;;;;;;4953759;29;20399;-86
2022/09/20 08:25:32;;;;;;;1.95;1.33;;;10.50;99.90;;;;;;4953628;28;20408;-86
2022/09/20 08:28:00;;;;;;;1.60;1.30;;;10.60;99.90;;;;;;4968881;28;20403;-86
2022/09/20 08:30:28;;;;;;;1.98;1.27;;;10.60;99.90;;;;;;4952683;29;20463;-85
2022/09/20 08:32:55;;;;;;;1.47;1.07;;;10.70;99.90;;;;;;4968551;28;20439;-85
2022/09/20 08:35:24;;;;;;;1.60;1.20;;;10.70;99.90;;;;;;4953799;28;20532;-86
2022/09/20 08:37:54;;;;;;;1.27;1.17;;;10.80;99.90;;;;;;4953512;29;20962;-86
2022/09/20 08:40:23;;;;;;;2.53;1.40;;;10.80;99.90;;;;;;4969229;28;20756;-87
2022/09/20 08:42:53;;;;;;;2.65;1.25;;;10.80;99.90;;;;;;4969892;28;20818;-86
2022/09/20 08:45:24;;;;;;;3.00;1.20;;;10.90;99.90;;;;;;4972192;28;20935;-87
2022/09/20 08:48:15;;;;;;;2.22;1.27;;;11.00;99.90;;;;;;4972299;28;20404;-87
2022/09/20 08:50:42;;;;;;;1.75;1.33;;;11.00;99.90;;;;;;4957287;29;20428;-87
2022/09/20 08:53:13;;;;;;;1.50;1.30;;;11.00;99.90;;;;;;4972148;28;20470;-86
2022/09/20 08:55:42;;;;;;;1.20;1.10;;;11.00;99.90;;;;;;4957084;29;20974;-86
2022/09/20 08:58:13;;;;;;;3.38;1.40;;;11.00;99.90;;;;;;4957086;28;20974;-85
2022/09/20 09:00:46;;;;;;;2.40;1.27;;;11.00;99.90;;;;;;4957102;29;20424;-87
2022/09/20 09:03:16;;;;;;;2.28;1.70;;;11.10;99.90;;;;;;4957151;28;20435;-86
2022/09/20 09:05:49;;;;;;;2.10;1.55;;;11.20;99.90;;;;;;4957463;29;20444;-87
2022/09/20 09:08:27;;;;;;;2.33;1.40;;;11.20;99.90;;;;;;4957018;29;20400;-85
2022/09/20 09:11:09;;;;;;;1.25;1.10;;;11.20;99.90;;;;;;4956834;29;20400;-86
2022/09/20 09:14:01;;;;;;;1.55;1.10;;;11.30;99.90;;;;;;4956916;29;20392;-85
2022/09/20 09:16:31;;;;;;;1.83;1.20;;;11.30;99.90;;;;;;4957243;29;20400;-87
2022/09/20 09:19:27;;;;;;;1.60;1.10;;;11.20;99.90;;;;;;4956884;28;20411;-86
2022/09/20 09:22:04;;;;;;;1.60;1.25;;;11.20;99.90;;;;;;4956729;28;20404;-86
2022/09/20 09:24:32;;;;;;;2.90;2.05;;;11.20;99.90;;;;;;4972112;28;20432;-86
2022/09/20 09:27:25;;;;;;;3.17;2.00;;;11.20;99.90;;;;;;4972018;28;21027;-83
2022/09/20 09:29:55;;;;;;;3.15;2.10;;;11.30;99.90;;;;;;4953867;28;20401;-85
2022/09/20 09:32:28;;;;;;;3.47;1.90;;;11.40;99.90;;;;;;4956391;29;20396;-86
2022/09/20 09:35:18;;;;;;;2.70;1.45;;;11.50;99.90;;;;;;4956543;29;20393;-86
2022/09/20 09:37:59;;;;;;;2.63;1.17;;;11.50;99.90;;;;;;4971337;28;20404;-85
2022/09/20 09:40:30;;;;;;;2.80;1.35;;;11.60;99.90;;;;;;4971327;28;20400;-86
2022/09/20 09:43:01;;;;;;;3.88;1.27;;;11.60;99.90;;;;;;4971628;28;20396;-85
2022/09/20 09:45:37;;;;;;;1.13;0.95;;;11.70;99.90;;;;;;4971091;28;20416;-85
2022/09/20 09:48:31;;;;;;;1.83;1.10;;;11.70;99.90;;;;;;4956221;28;20392;-88
2022/09/20 09:51:25;;;;;;;1.20;1.00;;;11.60;99.90;;;;;;4955798;28;20404;-86
2022/09/20 09:53:53;;;;;;;1.20;1.00;;;11.70;99.90;;;;;;4953142;28;20401;-87
2022/09/20 09:56:33;;;;;;;1.00;0.90;;;11.70;99.90;;;;;;4970816;28;20397;-88
2022/09/20 09:59:04;;;;;;;2.08;1.10;;;11.70;99.90;;;;;;4971082;28;20891;-87
2022/09/20 10:01:57;;;;;;;1.40;1.00;;;11.70;99.90;;;;;;4955957;29;20395;-84
2022/09/20 10:04:35;;;;;;;1.83;1.00;;;11.80;99.90;;;;;;4970694;28;20396;-87
2022/09/20 10:07:13;;;;;;;1.30;1.00;;;11.90;99.90;;;;;;4970727;28;20412;-87
2022/09/20 10:10:11;;;;;;;1.75;1.10;;;11.90;99.90;;;;;;4954840;29;20441;-88
2022/09/20 10:12:44;;;;;;;2.03;1.30;;;12.00;99.90;;;;;;4970676;28;20400;-87
2022/09/20 10:15:31;;;;;;;1.35;1.00;;;12.00;99.90;;;;;;4955679;29;20762;-86
2022/09/20 10:18:22;;;;;;;1.50;1.20;;;12.10;99.90;;;;;;4970845;28;20404;-87
2022/09/20 10:21:03;;;;;;;1.70;1.17;;;12.10;99.90;;;;;;4970462;28;20408;-86
2022/09/20 10:23:40;;;;;;;1.37;1.10;;;12.10;99.90;;;;;;4955614;29;20456;-84
2022/09/20 10:27:01;;;;;;;2.50;1.10;;;12.10;99.90;;;;;;4955627;29;20408;-87
2022/09/20 10:29:47;;;;;;;1.50;1.00;;;12.20;99.90;;;;;;4955413;29;20388;-87
2022/09/20 10:32:39;;;;;;;1.45;1.00;;;12.20;99.90;;;;;;4956341;29;20408;-88
2022/09/20 10:35:30;;;;;;;1.50;1.00;;;12.40;99.90;;;;;;4955465;29;20450;-87
2022/09/20 10:38:14;;;;;;;1.77;1.20;;;12.40;99.90;;;;;;4955563;29;20420;-87
2022/09/20 10:44:17;;;;;;;1.35;1.08;;;12.40;99.90;;;;;;4955403;28;20475;-87
2022/09/20 10:46:56;;;;;;;1.88;1.00;;;12.30;99.90;;;;;;4955741;29;20473;-86
2022/09/20 10:50:02;;;;;;;1.33;1.20;;;12.30;99.90;;;;;;4956853;29;20891;-83
2022/09/20 10:53:01;;;;;;;4.47;1.35;;;12.30;99.90;;;;;;4963170;29;20416;-81
2022/09/20 10:55:46;;;;;;;1.55;1.25;;;12.00;99.90;;;;;;4968965;28;20414;-80
2022/09/20 10:58:41;;;;;;;1.80;1.00;;;11.90;99.90;;;;;;4966041;29;20399;-85
2022/09/20 11:01:19;;;;;;;2.50;1.30;;;11.80;99.90;;;;;;4963574;29;20400;-86
2022/09/20 11:04:12;;;;;;;2.38;1.30;;;11.70;99.90;;;;;;4960703;29;20402;-85
2022/09/20 11:07:09;;;;;;;1.90;1.20;;;11.70;99.90;;;;;;4956104;28;20455;-88
2022/09/20 11:09:42;;;;;;;2.55;1.33;;;11.80;99.90;;;;;;4970864;28;20764;-86
2022/09/20 11:12:43;;;;;;;2.70;1.33;;;11.80;99.90;;;;;;4971115;28;20490;-86
2022/09/20 11:15:28;;;;;;;3.60;1.30;;;11.80;99.90;;;;;;4957046;29;20499;-84
2022/09/20 11:18:39;;;;;;;2.97;1.52;;;11.80;99.90;;;;;;4957539;29;20396;-85
2022/09/20 11:21:06;;;;;;;2.13;1.00;;;11.70;99.90;;;;;;4935446;29;20416;-86
2022/09/20 11:23:44;;;;;;;1.90;0.97;;;11.60;99.90;;;;;;4934682;29;20402;-85
2022/09/20 11:26:24;;;;;;;1.20;0.73;;;11.60;99.90;;;;;;4948231;29;20887;-87
2022/09/20 11:28:56;;;;;;;3.17;1.40;;;11.60;99.90;;;;;;4955673;29;20463;-87
2022/09/20 11:31:45;;;;;;;3.05;1.10;;;11.50;99.90;;;;;;4956147;29;20408;-86
2022/09/20 11:34:33;;;;;;;1.15;0.90;;;11.50;99.90;;;;;;4955380;28;20419;-87
2022/09/20 11:37:02;;;;;;;1.58;1.10;;;11.40;99.90;;;;;;4955322;29;20424;-85
2022/09/20 11:40:08;;;;;;;2.50;1.30;;;11.50;99.90;;;;;;4955588;29;20451;-86
2022/09/20 11:42:40;;;;;;;1.05;0.80;;;11.40;99.90;;;;;;4933135;29;20398;-87
2022/09/20 11:45:11;;;;;;;1.98;1.00;;;11.50;99.90;;;;;;4933450;29;20405;-86
2022/09/20 11:47:50;;;;;;;2.75;1.00;;;11.50;99.90;;;;;;4944666;29;20402;-85
2022/09/20 11:50:37;;;;;;;2.25;0.85;;;11.50;99.90;;;;;;4969478;28;20419;-87
2022/09/20 11:53:45;;;;;;;1.67;1.00;;;11.60;99.90;;;;;;4969184;28;20914;-86
2022/09/20 11:56:26;;;;;;;2.10;0.75;;;11.70;99.90;;;;;;4968972;28;20815;-86
2022/09/20 11:58:59;;;;;;;1.55;0.70;;;11.70;99.90;;;;;;4954083;29;20406;-87
2022/09/20 12:01:39;;;;;;;1.23;0.60;;;11.60;99.90;;;;;;4980121;28;20402;-86
2022/09/20 12:04:29;;;;;;;2.83;0.60;;;11.60;99.90;;;;;;4972051;28;20797;-87
2022/09/20 12:07:02;;;;;;;1.00;0.60;;;11.90;99.90;;;;;;4973279;28;20769;-86
2022/09/20 12:09:40;;;;;;;0.70;0.50;;;12.00;99.90;;;;;;4972252;28;20425;-84
2022/09/20 12:12:40;;;;;;;1.20;0.50;;;12.20;99.90;;;;;;4988046;28;20490;-85
2022/09/20 12:15:38;;;;;;;1.77;0.40;;;12.40;99.90;;;;;;4973016;28;20395;-85
2022/09/20 12:18:32;;;;;;;0.90;0.30;;;12.70;99.90;;;;;;4991205;28;20398;-84
2022/09/20 12:21:08;;;;;;;0.37;0.30;;;12.80;99.90;;;;;;4936304;29;20440;-85
2022/09/20 12:23:58;;;;;;;0.70;0.30;;;12.90;99.90;;;;;;4938620;29;20421;-84
2022/09/20 12:26:25;;;;;;;1.13;0.30;;;13.10;99.90;;;;;;4937322;29;20425;-84
2022/09/20 12:28:57;;;;;;;0.98;0.40;;;13.20;99.90;;;;;;4938441;29;20394;-83
2022/09/20 12:31:27;;;;;;;1.45;0.40;;;13.20;99.90;;;;;;4937154;29;20464;-86
2022/09/20 12:34:09;;;;;;;1.05;0.30;;;13.30;99.90;;;;;;4938383;29;20437;-86
2022/09/20 12:36:45;;;;;;;1.20;0.30;;;13.50;99.90;;;;;;4938257;29;20393;-86
2022/09/20 12:39:17;;;;;;;0.83;0.30;;;13.60;99.90;;;;;;4953114;29;20821;-86
2022/09/20 12:41:58;;;;;;;0.50;0.20;;;13.70;99.90;;;;;;4938239;29;20448;-85
2022/09/20 12:44:37;;;;;;;2.53;0.35;;;13.80;99.90;;;;;;4937724;29;20405;-86
2022/09/20 12:47:09;;;;;;;2.83;0.30;;;13.80;99.90;;;;;;4938111;29;20442;-85
2022/09/20 12:52:49;;;;;;;0.90;0.30;;;13.80;99.90;;;;;;4938154;29;20430;-85
2022/09/20 12:55:31;;;;;;;0.60;0.50;;;13.80;99.90;;;;;;4938160;29;20398;-85
2022/09/20 12:58:03;;;;;;;0.40;0.30;;;13.70;99.90;;;;;;4938049;29;20734;-87
2022/09/20 13:00:41;;;;;;;0.50;0.32;;;13.50;99.90;;;;;;4938050;29;20395;-85
2022/09/20 13:03:22;;;;;;;2.40;0.40;;;13.30;99.90;;;;;;4937872;29;20428;-86
2022/09/20 13:06:11;;;;;;;0.52;0.40;;;13.30;99.90;;;;;;4938841;29;20753;-88
2022/09/20 13:09:00;;;;;;;0.43;0.40;;;13.20;99.90;;;;;;4939396;29;20487;-88
2022/09/20 13:11:28;;;;;;;1.17;0.30;;;13.00;99.90;;;;;;4940295;29;20394;-87
2022/09/20 13:14:24;;;;;;;0.50;0.40;;;13.00;99.90;;;;;;4938386;29;20408;-85
2022/09/20 13:17:12;;;;;;;0.50;0.30;;;13.00;99.90;;;;;;4939308;29;20397;-85
2022/09/20 13:19:45;;;;;;;0.87;0.40;;;12.90;99.90;;;;;;4945559;28;20402;-86
2022/09/20 13:22:25;;;;;;;2.00;0.47;;;12.90;99.90;;;;;;4977523;28;20395;-85
2022/09/20 13:24:57;;;;;;;2.20;0.40;;;12.80;99.90;;;;;;4991604;28;20399;-88
2022/09/20 13:27:52;;;;;;;0.57;0.40;;;12.80;99.90;;;;;;4975575;28;20409;-88
2022/09/20 13:30:26;;;;;;;1.07;0.40;;;12.80;99.90;;;;;;4977657;28;20401;-87
2022/09/20 13:32:54;;;;;;;1.60;0.40;;;12.80;99.90;;;;;;4977021;28;20391;-87
2022/09/20 13:35:26;;;;;;;3.73;0.57;;;12.80;99.90;;;;;;4993194;28;20398;-86
2022/09/20 13:38:00;;;;;;;0.60;0.60;;;12.80;99.90;;;;;;4993421;28;20403;-88
2022/09/20 13:40:37;;;;;;;1.23;0.50;;;12.70;99.90;;;;;;4978293;28;20418;-88
2022/09/20 13:43:27;;;;;;;1.70;0.50;;;12.70;99.90;;;;;;4977546;28;20422;-84
2022/09/20 13:45:57;;;;;;;0.80;0.52;;;12.70;99.90;;;;;;4976160;28;20861;-86
2022/09/20 13:48:27;;;;;;;0.65;0.60;;;12.70;99.90;;;;;;4975839;28;20477;-88
2022/09/20 13:50:56;;;;;;;2.03;0.60;;;12.70;99.90;;;;;;4974723;28;20409;-85
2022/09/20 13:53:26;;;;;;;0.63;0.50;;;12.60;99.90;;;;;;4991724;28;20403;-87
2022/09/20 13:56:20;;;;;;;0.52;0.50;;;12.60;99.90;;;;;;4991386;28;20397;-86
2022/09/20 13:58:50;;;;;;;0.60;0.50;;;12.60;99.90;;;;;;4975202;28;20461;-87
2022/09/20 14:01:22;;;;;;;1.58;0.50;;;12.60;99.90;;;;;;4976214;28;20417;-87
2022/09/20 14:03:53;;;;;;;0.55;0.52;;;12.60;99.90;;;;;;4991935;28;20462;-86
2022/09/20 14:06:28;;;;;;;0.60;0.60;;;12.50;99.90;;;;;;4975015;28;20422;-88
2022/09/20 14:08:57;;;;;;;0.63;0.60;;;12.50;99.90;;;;;;4975493;28;20419;-86
2022/09/20 14:11:28;;;;;;;0.95;0.50;;;12.50;99.90;;;;;;4975175;28;20402;-86
2022/09/20 14:13:59;;;;;;;0.95;0.52;;;12.60;99.90;;;;;;4975117;28;20406;-87
2022/09/20 14:16:39;;;;;;;2.42;0.70;;;12.60;99.90;;;;;;4975345;28;20422;-87
2022/09/20 14:19:07;;;;;;;2.13;0.50;;;12.60;99.90;;;;;;4975112;28;20399;-88